Time;durP1;ratioP1;P1;durP2;ratioP2;P2;SDS_P1;SDS_P2;PMS_P1;PMS_P2;Temp;Humidity;BMP_temperature;BMP_pressure;BME280_temperature;BME280_humidity;BME280_pressure;Samples;Min_cycle;Max_cycle;Signal;HPM_P1;HPM_P2
2022/04/29 00:00:18;;;;;;;8.03;4.10;;;;;;;15.75;43.35;103210.16;5047362;28;20018;-74
2022/04/29 00:02:45;;;;;;;16.90;4.30;;;;;;;16.55;41.90;103200.88;5030942;28;20104;-74
2022/04/29 00:05:11;;;;;;;8.80;3.63;;;;;;;16.95;41.25;103204.50;5031186;28;20104;-74
2022/04/29 00:07:39;;;;;;;7.57;4.17;;;;;;;16.72;40.92;103199.16;5047274;28;20519;-74
2022/04/29 00:10:06;;;;;;;6.53;4.00;;;;;;;15.66;44.08;103201.31;5049846;28;20024;-74
2022/04/29 00:12:32;;;;;;;9.90;3.67;;;;;;;14.92;44.91;103212.19;5032666;28;20026;-74
2022/04/29 00:14:57;;;;;;;9.40;4.27;;;;;;;15.96;43.32;103205.91;5029966;28;20155;-74
2022/04/29 00:17:23;;;;;;;6.43;3.77;;;;;;;16.37;42.63;103194.66;5030434;28;20503;-74
2022/04/29 00:19:49;;;;;;;9.13;4.57;;;;;;;15.10;44.06;103196.53;5029976;28;20207;-74
2022/04/29 00:22:14;;;;;;;10.43;3.67;;;;;;;15.89;43.17;103193.56;5032482;28;20046;-74
2022/04/29 00:24:40;;;;;;;7.63;3.27;;;;;;;16.93;41.05;103192.16;5032529;28;20097;-75
2022/04/29 00:27:05;;;;;;;13.63;4.80;;;;;;;16.99;41.02;103186.88;5033670;28;20150;-74
2022/04/29 00:29:30;;;;;;;11.43;4.47;;;;;;;15.40;43.33;103187.09;5049895;28;20039;-74
2022/04/29 00:31:56;;;;;;;13.90;4.33;;;;;;;16.45;42.01;103178.84;5045857;28;20036;-74
2022/04/29 00:34:21;;;;;;;6.40;4.13;;;;;;;15.89;42.60;103178.63;5031347;28;20481;-75
2022/04/29 00:36:47;;;;;;;8.47;4.00;;;;;;;14.72;45.23;103173.34;5031071;28;20025;-74
2022/04/29 00:39:12;;;;;;;15.70;4.40;;;;;;;14.90;45.67;103177.91;5030974;28;20473;-74
2022/04/29 00:41:38;;;;;;;9.33;4.13;;;;;;;16.51;42.03;103167.41;5045154;28;20029;-74
2022/04/29 00:44:05;;;;;;;14.63;4.70;;;;;;;15.99;43.25;103163.75;5049801;28;20103;-74
2022/04/29 00:46:39;;;;;;;11.07;4.73;;;;;;;16.51;42.04;103167.41;5047566;28;20073;-74
2022/04/29 00:49:06;;;;;;;8.20;4.87;;;;;;;16.58;41.90;103169.19;5030969;28;20061;-74
2022/04/29 00:51:33;;;;;;;8.80;4.77;;;;;;;16.53;41.59;103160.41;5031747;28;20569;-74
2022/04/29 00:53:58;;;;;;;10.30;4.07;;;;;;;15.30;45.15;103172.09;5049212;28;20029;-74
2022/04/29 00:56:28;;;;;;;6.63;4.30;;;;;;;16.75;41.53;103175.38;5048949;28;20349;-74
2022/04/29 00:59:01;;;;;;;10.77;4.67;;;;;;;16.63;41.44;103167.44;5028413;28;20040;-74
2022/04/29 01:01:31;;;;;;;11.03;4.67;;;;;;;16.47;41.81;103173.56;5032790;28;20094;-74
2022/04/29 01:03:58;;;;;;;11.03;4.60;;;;;;;15.47;44.37;103160.78;5044185;28;20018;-74
2022/04/29 01:06:25;;;;;;;7.43;4.40;;;;;;;16.02;43.38;103169.03;5048791;28;20028;-74
2022/04/29 01:08:50;;;;;;;7.80;4.93;;;;;;;16.40;41.78;103160.38;5050429;28;20044;-74
2022/04/29 01:11:20;;;;;;;11.67;4.53;;;;;;;15.52;44.60;103156.44;5039640;28;20115;-74
2022/04/29 01:13:46;;;;;;;10.80;4.20;;;;;;;15.33;45.09;103158.97;5043429;28;20036;-74
2022/04/29 01:16:11;;;;;;;6.67;4.27;;;;;;;16.63;41.94;103156.88;5048086;28;20029;-74
2022/04/29 01:18:37;;;;;;;8.20;4.57;;;;;;;15.86;43.99;103156.66;5048551;28;20048;-74
2022/04/29 01:21:05;;;;;;;10.33;4.53;;;;;;;16.26;42.59;103156.78;5048678;28;20404;-74
2022/04/29 01:23:32;;;;;;;11.93;5.10;;;;;;;16.47;42.37;103147.16;5049183;28;20454;-74
2022/04/29 01:25:58;;;;;;;13.37;4.53;;;;;;;16.52;41.77;103148.06;5049066;28;20098;-74
2022/04/29 01:28:24;;;;;;;10.43;4.50;;;;;;;17.02;41.07;103136.69;5047863;28;20025;-74
2022/04/29 01:30:51;;;;;;;6.37;4.33;;;;;;;16.37;42.07;103128.66;5031814;28;20028;-74
2022/04/29 01:33:18;;;;;;;12.57;5.73;;;;;;;16.71;42.05;103128.72;5048724;28;20035;-74
2022/04/29 01:35:43;;;;;;;10.90;5.03;;;;;;;16.77;41.49;103134.03;5037492;28;20358;-74
2022/04/29 01:38:09;;;;;;;10.97;4.97;;;;;;;16.10;43.07;103134.75;5033052;28;20116;-74
2022/04/29 01:40:34;;;;;;;7.30;4.60;;;;;;;16.38;42.09;103140.13;5048110;28;20480;-74
2022/04/29 01:43:00;;;;;;;7.67;5.03;;;;;;;17.16;40.29;103146.34;5030995;28;20018;-74
2022/04/29 01:45:26;;;;;;;12.70;4.70;;;;;;;16.33;41.84;103152.41;5028888;28;20057;-74
2022/04/29 01:47:51;;;;;;;16.83;5.53;;;;;;;16.48;41.95;103138.38;5031181;28;20041;-74
2022/04/29 01:50:16;;;;;;;5.77;4.00;;;;;;;16.81;41.28;103141.94;5050521;28;20029;-74
2022/04/29 01:52:42;;;;;;;15.87;5.93;;;;;;;16.86;41.13;103137.56;5047289;28;20025;-74
2022/04/29 01:55:07;;;;;;;7.33;3.87;;;;;;;16.95;40.87;103137.56;5046646;28;20583;-74
2022/04/29 01:57:33;;;;;;;11.07;4.57;;;;;;;16.47;41.78;103137.47;5050005;28;20033;-74
2022/04/29 01:59:58;;;;;;;8.60;4.70;;;;;;;15.04;44.95;103122.75;5031014;28;20030;-74
2022/04/29 02:02:25;;;;;;;8.43;4.90;;;;;;;15.39;44.46;103114.19;5027939;28;20443;-74
2022/04/29 02:04:50;;;;;;;8.27;5.10;;;;;;;16.22;42.70;103108.41;5036321;28;20101;-75
2022/04/29 02:07:15;;;;;;;13.97;5.90;;;;;;;15.17;44.62;103107.03;5031649;28;20025;-74
2022/04/29 02:09:41;;;;;;;10.57;5.20;;;;;;;16.56;41.82;103112.88;5046408;28;20461;-74
2022/04/29 02:12:07;;;;;;;15.87;5.13;;;;;;;16.47;41.88;103110.22;5030304;28;20505;-74
2022/04/29 02:14:36;;;;;;;14.97;5.77;;;;;;;16.67;41.40;103111.13;5029926;28;20033;-75
2022/04/29 02:17:03;;;;;;;12.57;5.77;;;;;;;16.64;41.69;103111.13;5035126;28;20025;-74
2022/04/29 02:19:29;;;;;;;11.67;4.93;;;;;;;16.22;42.84;103112.81;5045162;28;20067;-75
2022/04/29 02:21:56;;;;;;;12.87;4.93;;;;;;;16.76;41.78;103113.78;5046301;28;20080;-74
2022/04/29 02:24:22;;;;;;;9.10;5.40;;;;;;;16.49;41.81;103119.03;5047884;28;20087;-74
2022/04/29 02:26:47;;;;;;;7.47;4.40;;;;;;;16.43;41.96;103131.34;5047963;28;20025;-74
2022/04/29 02:29:13;;;;;;;9.37;5.60;;;;;;;16.89;40.67;103134.94;5051312;28;20029;-74
2022/04/29 02:31:38;;;;;;;10.53;4.90;;;;;;;16.79;40.61;103126.09;5039331;28;20038;-74
2022/04/29 02:34:04;;;;;;;13.57;5.47;;;;;;;15.81;42.64;103129.38;5046464;28;20069;-74
2022/04/29 02:36:29;;;;;;;12.23;5.13;;;;;;;16.33;41.72;103121.63;5048295;28;20431;-74
2022/04/29 02:38:55;;;;;;;12.73;5.07;;;;;;;16.49;41.93;103130.47;5043188;28;20372;-74
2022/04/29 02:41:20;;;;;;;10.07;4.60;;;;;;;16.48;41.94;103125.19;5031996;28;20120;-74
2022/04/29 02:43:45;;;;;;;6.13;3.83;;;;;;;16.24;42.09;103116.34;5033916;28;20120;-74
2022/04/29 02:46:11;;;;;;;9.73;4.90;;;;;;;16.67;41.32;103116.41;5038557;28;20098;-75
2022/04/29 02:48:36;;;;;;;8.63;5.53;;;;;;;16.55;41.47;103121.66;5051554;28;20132;-74
2022/04/29 02:51:04;;;;;;;13.53;5.30;;;;;;;15.70;43.54;103114.38;5051086;28;20076;-74
2022/04/29 02:53:32;;;;;;;11.20;5.03;;;;;;;16.27;42.39;103116.34;5050410;28;20025;-74
2022/04/29 02:55:58;;;;;;;10.93;5.40;;;;;;;15.94;41.97;103115.38;5050908;28;20036;-74
2022/04/29 02:58:23;;;;;;;9.67;5.30;;;;;;;16.22;42.40;103112.81;5051467;28;20086;-74
2022/04/29 03:00:48;;;;;;;9.53;5.13;;;;;;;16.00;42.13;103099.53;5041894;28;20065;-74
2022/04/29 03:03:14;;;;;;;6.60;4.40;;;;;;;16.52;41.70;103105.84;5040399;28;20091;-74
2022/04/29 03:05:40;;;;;;;8.57;5.03;;;;;;;16.32;42.22;103108.44;5036480;28;20025;-74
2022/04/29 03:08:06;;;;;;;13.97;5.50;;;;;;;16.24;42.19;103105.78;5032208;28;20061;-74
2022/04/29 03:10:32;;;;;;;15.03;4.80;;;;;;;15.93;41.99;103108.31;5031474;28;20018;-74
2022/04/29 03:12:57;;;;;;;16.47;5.87;;;;;;;16.63;41.22;103104.94;5034115;28;20032;-74
2022/04/29 03:15:25;;;;;;;11.87;5.23;;;;;;;15.19;43.71;103113.16;5042052;28;20053;-73
2022/04/29 03:20:38;;;;;;;8.97;4.90;;;;;;;16.13;41.82;103107.50;5031680;28;20049;-73
2022/04/29 03:23:04;;;;;;;9.97;5.27;;;;;;;16.17;42.54;103101.34;5031288;28;20419;-74
2022/04/29 03:25:29;;;;;;;13.87;5.70;;;;;;;16.62;41.23;103092.66;5046786;28;20033;-74
2022/04/29 03:27:55;;;;;;;14.07;5.57;;;;;;;15.93;42.96;103100.41;5029738;28;20029;-74
2022/04/29 03:30:20;;;;;;;8.40;5.20;;;;;;;16.42;41.90;103104.94;5032190;28;20029;-74
2022/04/29 03:33:06;;;;;;;11.43;5.07;;;;;;;16.82;40.58;103101.47;5032122;28;20049;-74
2022/04/29 03:35:31;;;;;;;12.43;5.30;;;;;;;16.58;40.89;103100.53;5030666;28;20133;-74
2022/04/29 03:37:57;;;;;;;10.40;4.83;;;;;;;15.44;43.07;103099.28;5030308;28;20120;-74
2022/04/29 03:40:25;;;;;;;12.40;5.20;;;;;;;16.15;42.13;103097.84;5031195;28;20072;-74
2022/04/29 03:42:52;;;;;;;10.43;4.70;;;;;;;16.55;41.27;103097.91;5030364;28;20037;-73
2022/04/29 03:45:19;;;;;;;12.23;5.33;;;;;;;15.39;43.60;103098.38;5014483;28;20072;-73
2022/04/29 03:47:44;;;;;;;10.47;4.57;;;;;;;15.87;42.72;103097.75;5041182;28;20039;-73
2022/04/29 03:50:11;;;;;;;8.63;5.10;;;;;;;16.70;41.10;103097.03;5050802;28;20036;-74
2022/04/29 03:52:46;;;;;;;16.60;5.13;;;;;;;16.26;41.65;103096.97;5049074;28;20029;-73
2022/04/29 03:55:14;;;;;;;9.80;5.27;;;;;;;15.91;42.90;103091.63;5031650;28;20029;-73
2022/04/29 03:57:39;;;;;;;8.77;4.57;;;;;;;16.64;40.96;103090.00;5029442;28;20461;-72
2022/04/29 04:00:05;;;;;;;10.33;5.50;;;;;;;16.71;40.75;103089.13;5034170;28;20048;-73
2022/04/29 04:02:31;;;;;;;7.77;4.73;;;;;;;16.61;41.38;103074.16;5013063;28;20508;-74
2022/04/29 04:04:56;;;;;;;18.00;5.53;;;;;;;15.30;43.29;103082.50;5047129;28;20021;-73
2022/04/29 04:07:22;;;;;;;14.73;5.30;;;;;;;16.05;42.76;103073.19;5050431;28;20629;-74
2022/04/29 04:09:47;;;;;;;12.43;5.23;;;;;;;16.38;41.50;103066.22;5049675;28;20036;-74
2022/04/29 04:12:12;;;;;;;12.03;5.50;;;;;;;15.32;43.91;103070.22;5049779;28;20060;-73
2022/04/29 04:14:38;;;;;;;12.03;5.97;;;;;;;15.46;43.94;103064.16;5035149;28;20478;-73
2022/04/29 04:17:03;;;;;;;11.53;4.80;;;;;;;15.51;43.47;103059.78;5029805;28;20036;-73
2022/04/29 04:19:29;;;;;;;13.10;5.53;;;;;;;16.06;42.34;103061.75;5008253;28;20106;-74
2022/04/29 04:21:54;;;;;;;11.03;5.57;;;;;;;15.59;43.16;103063.31;5048743;28;20451;-73
2022/04/29 04:24:20;;;;;;;10.10;5.17;;;;;;;15.68;43.43;103059.88;5039954;28;20025;-73
2022/04/29 04:26:45;;;;;;;14.27;5.43;;;;;;;16.08;42.51;103052.97;5030436;28;20036;-73
2022/04/29 04:29:10;;;;;;;9.93;4.83;;;;;;;15.62;43.58;103052.81;5037168;28;20035;-73
2022/04/29 04:31:37;;;;;;;13.27;5.43;;;;;;;15.54;43.43;103065.06;5048780;28;20071;-74
2022/04/29 04:34:49;;;;;;;20.27;6.67;;;;;;;15.97;42.54;103059.97;5041251;28;20056;-73
2022/04/29 04:36:54;;;;;;;14.37;5.07;;;;;;;15.66;43.30;103058.97;5030924;28;20529;-74
2022/04/29 04:39:20;;;;;;;17.30;5.57;;;;;;;16.09;42.61;103065.28;5030696;28;20492;-74
2022/04/29 04:41:46;;;;;;;8.20;4.60;;;;;;;14.85;44.92;103066.41;5030577;28;20026;-73
2022/04/29 04:44:11;;;;;;;14.87;5.40;;;;;;;14.91;45.16;103063.81;5028553;28;20051;-73
2022/04/29 04:46:37;;;;;;;11.77;4.70;;;;;;;15.83;42.65;103061.72;5029321;28;20053;-74
2022/04/29 04:49:02;;;;;;;13.30;5.03;;;;;;;15.78;42.91;103062.53;5031034;28;20033;-74
2022/04/29 04:51:28;;;;;;;10.97;5.17;;;;;;;15.67;43.29;103061.59;5061451;28;20116;-74
2022/04/29 04:53:53;;;;;;;17.93;5.50;;;;;;;15.06;44.71;103062.16;5033942;28;20044;-73
2022/04/29 04:56:18;;;;;;;16.47;5.23;;;;;;;15.75;43.17;103054.59;5048569;28;20021;-73
2022/04/29 04:58:44;;;;;;;13.07;4.50;;;;;;;15.54;43.97;103059.81;5047742;28;20025;-73
2022/04/29 05:01:09;;;;;;;11.40;4.57;;;;;;;14.92;45.22;103054.19;5046444;28;20117;-74
2022/04/29 05:03:34;;;;;;;13.03;5.43;;;;;;;15.16;44.51;103057.84;5050903;28;20032;-73
2022/04/29 05:06:00;;;;;;;10.03;5.27;;;;;;;15.53;43.09;103073.84;5048294;28;20029;-74
2022/04/29 05:08:25;;;;;;;9.70;4.97;;;;;;;15.80;42.79;103083.66;5046894;28;20032;-74
2022/04/29 05:10:50;;;;;;;13.57;5.00;;;;;;;15.75;42.59;103075.69;5047507;28;20035;-73
2022/04/29 05:13:16;;;;;;;14.33;4.80;;;;;;;16.69;41.19;103067.13;5037475;28;20028;-73
2022/04/29 05:15:42;;;;;;;11.23;5.37;;;;;;;16.53;41.13;103074.16;5046456;28;20458;-73
2022/04/29 05:18:08;;;;;;;9.97;5.03;;;;;;;15.86;43.00;103091.59;5050424;28;20059;-73
2022/04/29 05:20:34;;;;;;;8.53;4.20;;;;;;;16.59;41.62;103091.75;5047513;28;20133;-74
2022/04/29 05:22:59;;;;;;;12.87;4.87;;;;;;;14.99;44.35;103087.56;5048678;28;20048;-74
2022/04/29 05:25:25;;;;;;;12.50;4.60;;;;;;;15.63;43.19;103090.59;5048611;28;20020;-73
2022/04/29 05:27:50;;;;;;;11.40;5.33;;;;;;;15.76;42.94;103092.41;5047325;28;20044;-75
2022/04/29 05:30:15;;;;;;;14.03;4.90;;;;;;;14.92;44.25;103101.59;5047374;28;20037;-74
2022/04/29 05:32:41;;;;;;;16.80;6.60;;;;;;;16.19;42.96;103094.34;5028615;28;20055;-74
2022/04/29 05:35:08;;;;;;;12.50;5.50;;;;;;;15.40;44.68;103100.13;5029117;28;20117;-74
2022/04/29 05:37:34;;;;;;;13.27;5.00;;;;;;;15.23;44.46;103107.06;5030193;28;20083;-74
2022/04/29 05:42:43;;;;;;;7.43;4.23;;;;;;;15.71;43.38;103097.66;5037618;28;20092;-73
2022/04/29 05:45:09;;;;;;;16.20;5.50;;;;;;;16.03;43.04;103096.94;5040121;28;20021;-74
2022/04/29 05:47:35;;;;;;;10.67;5.33;;;;;;;16.93;41.78;103081.22;5030079;28;20025;-74
2022/04/29 05:50:00;;;;;;;16.73;6.50;;;;;;;16.24;42.75;103089.97;5028820;28;20025;-74
2022/04/29 05:52:26;;;;;;;9.60;4.00;;;;;;;15.13;44.46;103086.81;5029267;28;20037;-74
2022/04/29 05:54:51;;;;;;;8.83;4.70;;;;;;;15.85;43.28;103102.13;5033034;28;20032;-74
2022/04/29 05:57:17;;;;;;;8.93;4.93;;;;;;;16.26;42.53;103101.38;5038213;28;20033;-74
2022/04/29 05:59:42;;;;;;;11.93;5.20;;;;;;;17.22;40.90;103104.94;5049823;28;20029;-74
2022/04/29 06:02:08;;;;;;;9.10;4.50;;;;;;;17.48;40.02;103105.78;5031663;28;20539;-73
2022/04/29 06:04:34;;;;;;;16.80;5.10;;;;;;;16.88;41.28;103098.78;5042326;28;20476;-73
2022/04/29 06:06:59;;;;;;;16.50;5.27;;;;;;;16.74;42.08;103091.75;5047983;28;20021;-74
2022/04/29 06:09:25;;;;;;;11.20;5.10;;;;;;;16.77;41.20;103110.25;5041503;28;20095;-74
2022/04/29 06:11:51;;;;;;;9.60;4.60;;;;;;;16.41;42.48;103104.03;5027990;28;20117;-74
2022/04/29 06:14:16;;;;;;;14.50;5.27;;;;;;;16.74;42.18;103104.94;5046380;28;20447;-74
2022/04/29 06:16:43;;;;;;;13.40;5.30;;;;;;;15.98;43.74;103109.22;5051515;28;20033;-73
2022/04/29 06:19:09;;;;;;;15.33;5.60;;;;;;;16.36;43.32;103105.81;5049818;28;20087;-74
2022/04/29 06:21:40;;;;;;;18.63;5.37;;;;;;;16.53;42.72;103102.31;5033357;28;20053;-74
2022/04/29 06:24:06;;;;;;;14.13;5.10;;;;;;;16.66;41.38;103098.78;5035114;28;20472;-74
2022/04/29 06:26:31;;;;;;;11.27;4.77;;;;;;;17.63;39.91;103106.59;5050571;28;20028;-74
2022/04/29 06:28:57;;;;;;;10.33;4.80;;;;;;;16.92;42.07;103111.16;5051336;28;20461;-74
2022/04/29 06:31:22;;;;;;;9.20;4.90;;;;;;;16.15;43.12;103105.75;5044072;28;20569;-73
2022/04/29 06:33:47;;;;;;;11.33;4.00;;;;;;;16.17;42.68;103106.63;5037561;28;20037;-74
2022/04/29 06:36:13;;;;;;;11.13;4.90;;;;;;;16.47;42.42;103097.03;5045575;28;20028;-74
2022/04/29 06:38:38;;;;;;;16.10;4.80;;;;;;;17.87;40.05;103117.09;5042028;28;20409;-73
2022/04/29 06:41:04;;;;;;;10.53;5.33;;;;;;;18.08;38.88;103122.31;5052196;28;20116;-74
2022/04/29 06:43:32;;;;;;;15.93;4.03;;;;;;;17.46;40.38;103118.97;5050393;28;20048;-74
2022/04/29 06:45:59;;;;;;;11.60;4.40;;;;;;;16.77;41.52;103118.19;5039817;28;20029;-74
2022/04/29 06:48:24;;;;;;;8.70;4.50;;;;;;;16.85;41.96;103115.53;5035067;28;20068;-74
2022/04/29 06:50:50;;;;;;;14.53;4.60;;;;;;;16.37;42.71;103123.38;5031021;28;20067;-74
2022/04/29 06:53:15;;;;;;;11.40;5.03;;;;;;;17.27;41.40;103123.47;5051033;28;20037;-73
2022/04/29 06:55:40;;;;;;;11.50;4.80;;;;;;;17.29;40.92;103127.81;5046893;28;20025;-74
2022/04/29 06:58:06;;;;;;;11.43;4.50;;;;;;;17.94;39.92;103135.63;5055935;28;20383;-73
2022/04/29 07:00:33;;;;;;;9.07;4.60;;;;;;;17.62;40.28;103141.84;5052153;28;20033;-74
2022/04/29 07:03:01;;;;;;;9.13;5.07;;;;;;;18.67;37.92;103132.53;5050600;28;20035;-74
2022/04/29 07:05:28;;;;;;;7.67;4.23;;;;;;;16.42;42.21;103144.53;5048956;28;20020;-74
2022/04/29 07:07:53;;;;;;;10.50;4.70;;;;;;;17.72;40.08;103142.72;5052476;28;20025;-74
2022/04/29 07:10:18;;;;;;;10.73;4.53;;;;;;;19.18;38.01;103139.19;5053242;28;20036;-73
2022/04/29 07:12:46;;;;;;;13.23;4.90;;;;;;;19.78;36.33;103128.81;5050286;28;20025;-74
2022/04/29 07:15:13;;;;;;;12.70;4.43;;;;;;;18.61;38.13;103135.22;5051738;28;20040;-74
2022/04/29 07:17:39;;;;;;;7.90;4.00;;;;;;;17.34;40.78;103141.06;5032374;28;20033;-74
2022/04/29 07:20:07;;;;;;;13.17;4.27;;;;;;;18.65;38.15;103131.66;5050070;28;20024;-74
2022/04/29 07:22:32;;;;;;;12.20;4.13;;;;;;;18.57;38.09;103128.19;5042735;28;20061;-73
2022/04/29 07:24:58;;;;;;;9.27;4.30;;;;;;;17.96;39.13;103125.88;5049387;28;20029;-74
2022/04/29 07:27:27;;;;;;;10.67;4.67;;;;;;;17.97;39.51;103121.50;5050996;28;20140;-74
2022/04/29 07:29:53;;;;;;;11.47;4.50;;;;;;;18.64;38.40;103116.66;5049748;28;20052;-74
2022/04/29 07:32:19;;;;;;;9.13;4.33;;;;;;;18.57;38.48;103112.28;5044012;28;20568;-75
2022/04/29 07:42:56;;;;;;;10.93;4.73;;;;;;;18.62;38.71;103131.69;5031772;28;20087;-74
2022/04/29 07:45:21;;;;;;;13.03;4.73;;;;;;;19.67;36.73;103113.03;5047720;28;20089;-74
2022/04/29 07:47:47;;;;;;;9.27;4.23;;;;;;;18.96;37.97;103110.25;5029661;28;20044;-74
2022/04/29 07:50:13;;;;;;;11.60;4.23;;;;;;;18.73;37.83;103103.34;5034839;28;20099;-74
2022/04/29 07:52:38;;;;;;;7.70;4.10;;;;;;;18.14;39.03;103109.03;5039683;28;20116;-74
2022/04/29 07:55:04;;;;;;;9.17;4.50;;;;;;;18.33;38.45;103111.59;5031419;28;20030;-73
2022/04/29 07:57:30;;;;;;;10.87;4.63;;;;;;;17.91;39.30;103105.59;5030607;28;20032;-73
2022/04/29 07:59:55;;;;;;;10.27;4.73;;;;;;;18.98;37.04;103103.16;5059934;28;20119;-74
2022/04/29 08:02:20;;;;;;;6.47;4.23;;;;;;;18.92;37.89;103104.09;5046410;28;20107;-73
2022/04/29 08:04:46;;;;;;;9.80;3.63;;;;;;;18.20;38.50;103109.91;5051622;28;20049;-74
2022/04/29 08:07:12;;;;;;;12.87;4.83;;;;;;;18.34;38.70;103120.41;5049969;28;20074;-74
2022/04/29 08:09:38;;;;;;;10.53;4.63;;;;;;;18.94;37.78;103114.66;5033846;28;20043;-74
2022/04/29 08:12:04;;;;;;;9.30;4.47;;;;;;;18.85;37.85;103120.91;5046087;28;20033;-75
2022/04/29 08:14:31;;;;;;;11.37;4.53;;;;;;;17.87;39.43;103125.88;5047861;28;20587;-73
2022/04/29 08:16:56;;;;;;;11.73;4.33;;;;;;;18.54;38.32;103133.50;5051129;28;20052;-74
2022/04/29 08:19:23;;;;;;;10.07;4.07;;;;;;;17.32;40.27;103126.94;5034330;28;20044;-75
2022/04/29 08:21:48;;;;;;;8.93;4.70;;;;;;;18.51;38.33;103112.34;5047743;28;20075;-75
2022/04/29 08:24:14;;;;;;;13.83;4.33;;;;;;;18.01;39.51;103122.34;5048496;28;20112;-75
2022/04/29 08:26:40;;;;;;;14.93;4.60;;;;;;;18.88;37.97;103122.69;5061541;28;20044;-75
2022/04/29 08:29:05;;;;;;;13.20;4.40;;;;;;;17.68;39.89;103129.50;5063816;28;20044;-75
2022/04/29 08:31:30;;;;;;;7.73;4.20;;;;;;;18.65;38.63;103121.06;5057131;28;20039;-74
2022/04/29 08:33:56;;;;;;;13.63;4.33;;;;;;;18.53;37.47;103116.72;5030183;28;20030;-75
2022/04/29 08:36:21;;;;;;;11.70;4.47;;;;;;;18.72;37.70;103111.31;5047706;28;20030;-74
2022/04/29 08:38:47;;;;;;;10.83;4.40;;;;;;;18.78;37.89;103109.47;5042900;28;20152;-74
2022/04/29 08:41:12;;;;;;;9.73;4.27;;;;;;;19.25;37.14;103111.75;5049150;28;20056;-74
2022/04/29 08:43:39;;;;;;;14.10;4.60;;;;;;;19.20;37.25;103113.56;5061821;28;20109;-74
2022/04/29 08:46:06;;;;;;;8.57;3.80;;;;;;;19.77;35.66;103121.75;5045702;28;20028;-75
2022/04/29 08:48:33;;;;;;;9.80;3.50;;;;;;;19.32;36.99;103118.72;5048772;28;20048;-74
2022/04/29 08:50:59;;;;;;;15.50;4.73;;;;;;;20.08;35.57;103121.34;5048765;28;20021;-75
2022/04/29 08:53:24;;;;;;;12.67;4.40;;;;;;;19.69;35.86;103122.72;5045734;28;20020;-74
2022/04/29 08:58:37;;;;;;;19.43;4.00;;;;;;;20.04;34.80;103130.25;5049642;28;20044;-74
2022/04/29 09:01:09;;;;;;;75.13;10.27;;;;;;;20.13;34.62;103130.13;5049004;28;20029;-75
2022/04/29 09:03:38;;;;;;;123.35;15.13;;;;;;;19.44;36.18;103129.19;5048872;28;20047;-75
2022/04/29 09:06:04;;;;;;;53.53;7.33;;;;;;;19.37;36.35;103130.16;5048377;28;20025;-75
2022/04/29 09:08:38;;;;;;;21.63;5.50;;;;;;;19.06;36.84;103133.09;5047840;28;20025;-74
2022/04/29 09:11:05;;;;;;;25.47;5.90;;;;;;;20.34;35.11;103144.00;5047729;28;20070;-75
2022/04/29 09:13:35;;;;;;;20.30;5.10;;;;;;;20.09;34.65;103138.19;5035444;28;20112;-74
2022/04/29 09:16:12;;;;;;;7.00;3.67;;;;;;;20.26;34.92;103140.59;5033876;28;20044;-75
2022/04/29 09:18:49;;;;;;;7.30;3.90;;;;;;;21.18;33.70;103128.50;5029708;28;20116;-74
2022/04/29 09:21:26;;;;;;;9.53;4.20;;;;;;;20.53;33.90;103119.84;5046791;28;20115;-75
2022/04/29 09:23:57;;;;;;;8.97;4.30;;;;;;;20.79;34.46;103114.13;5029362;28;20029;-75
2022/04/29 09:26:36;;;;;;;7.77;4.10;;;;;;;19.43;35.59;103122.13;5038980;28;20485;-74
2022/04/29 09:29:15;;;;;;;14.77;4.33;;;;;;;20.87;34.21;103122.84;5039148;28;20029;-75
2022/04/29 09:31:52;;;;;;;10.13;4.20;;;;;;;20.81;34.04;103120.28;5032101;28;20024;-74
2022/04/29 09:34:18;;;;;;;13.23;3.78;;;;;;;19.76;34.97;103121.75;5046943;28;20032;-74
2022/04/29 09:36:44;;;;;;;8.37;4.07;;;;;;;21.48;33.19;103115.47;5043300;28;20435;-74
2022/04/29 09:39:27;;;;;;;8.33;3.60;;;;;;;21.13;33.08;103119.72;5046116;28;20438;-74
2022/04/29 09:41:54;;;;;;;10.40;3.67;;;;;;;19.72;35.18;103115.59;5042790;28;20076;-75
2022/04/29 09:44:30;;;;;;;12.57;3.80;;;;;;;20.75;34.11;103117.75;5047149;28;20052;-75
2022/04/29 09:47:16;;;;;;;7.75;3.90;;;;;;;20.54;34.40;103105.63;5046423;28;20469;-74
2022/04/29 09:49:55;;;;;;;6.50;3.60;;;;;;;20.47;34.72;103113.72;5028004;28;20026;-74
2022/04/29 09:52:21;;;;;;;8.55;3.95;;;;;;;19.55;36.26;103109.63;5035005;28;20056;-75
2022/04/29 09:54:47;;;;;;;9.48;4.00;;;;;;;21.14;34.02;103100.22;5047726;28;20056;-74
2022/04/29 09:57:15;;;;;;;11.73;4.07;;;;;;;21.19;33.96;103093.00;5051590;28;20075;-75
2022/04/29 09:59:42;;;;;;;9.15;3.67;;;;;;;20.32;33.90;103106.00;5048347;28;20036;-74
2022/04/29 10:02:10;;;;;;;9.45;3.83;;;;;;;21.19;33.51;103114.25;5029060;28;20131;-74
2022/04/29 10:04:38;;;;;;;8.85;3.88;;;;;;;20.57;33.92;103113.56;5045515;28;20112;-74
2022/04/29 10:07:08;;;;;;;9.15;3.80;;;;;;;21.32;33.32;103119.34;5027865;28;20433;-74
2022/04/29 10:09:35;;;;;;;12.73;4.30;;;;;;;19.67;34.84;103133.34;5042843;28;20184;-75
2022/04/29 10:12:03;;;;;;;8.05;4.15;;;;;;;20.84;34.11;103123.78;5048691;28;20029;-74
2022/04/29 10:14:31;;;;;;;8.32;4.20;;;;;;;21.33;32.93;103115.78;5020975;28;20034;-75
2022/04/29 10:22:36;;;;;;;8.27;4.13;;;;;;;18.25;37.43;103131.94;5047713;28;20071;-75
2022/04/29 10:25:05;;;;;;;10.48;5.05;;;;;;;20.27;34.75;103126.41;5060188;28;20035;-75
2022/04/29 10:27:32;;;;;;;11.48;4.32;;;;;;;19.74;35.48;103118.22;5048604;28;20074;-75
2022/04/29 10:29:57;;;;;;;12.65;4.25;;;;;;;21.10;33.82;103110.91;5042783;28;20025;-74
2022/04/29 10:32:23;;;;;;;8.88;3.83;;;;;;;19.52;36.20;103123.78;5054653;28;20473;-74
2022/04/29 10:34:49;;;;;;;6.53;4.00;;;;;;;19.76;35.62;103114.66;5044956;28;20779;-74
2022/04/29 10:37:15;;;;;;;12.90;4.10;;;;;;;20.77;34.74;103111.50;5050951;28;20488;-74
2022/04/29 10:39:42;;;;;;;5.60;3.90;;;;;;;20.90;34.13;103112.16;5041650;28;20174;-74
2022/04/29 10:42:11;;;;;;;7.38;3.33;;;;;;;20.96;33.87;103117.34;5030866;28;20742;-74
2022/04/29 10:45:00;;;;;;;10.77;4.35;;;;;;;21.02;34.02;103105.75;4991142;28;20143;-74
2022/04/29 10:47:38;;;;;;;12.50;4.80;;;;;;;21.23;33.41;103114.22;5045821;28;20036;-74
2022/04/29 10:50:29;;;;;;;11.48;4.03;;;;;;;20.87;33.76;103113.97;5050567;28;20075;-74
2022/04/29 10:53:12;;;;;;;12.82;4.07;;;;;;;21.14;33.46;103113.50;5028054;28;20061;-75
2022/04/29 10:55:37;;;;;;;13.40;3.95;;;;;;;22.10;32.13;103119.53;5036551;28;20044;-74
2022/04/29 10:58:17;;;;;;;11.55;4.03;;;;;;;21.86;32.37;103116.50;5041698;28;20045;-74
2022/04/29 11:00:54;;;;;;;11.30;4.05;;;;;;;20.62;33.64;103117.91;5044793;28;20099;-74
2022/04/29 11:03:38;;;;;;;8.98;3.45;;;;;;;22.28;31.03;103118.22;5050580;28;20120;-74
2022/04/29 11:06:12;;;;;;;8.98;3.75;;;;;;;23.80;29.45;103107.16;5052896;28;20033;-74
2022/04/29 11:08:39;;;;;;;8.77;3.55;;;;;;;21.57;32.10;103122.47;5050712;28;20235;-74
2022/04/29 11:11:05;;;;;;;10.60;3.72;;;;;;;22.85;30.26;103119.53;5034307;28;20037;-74
2022/04/29 11:13:36;;;;;;;8.52;3.45;;;;;;;21.19;32.21;103116.94;5050509;28;20039;-74
2022/04/29 11:16:12;;;;;;;6.22;3.70;;;;;;;22.50;30.60;103108.00;5052346;28;20038;-74
2022/04/29 11:18:38;;;;;;;8.52;4.05;;;;;;;20.62;33.21;103122.31;5030790;28;20037;-75
2022/04/29 11:24:40;;;;;;;6.93;3.85;;;;;;;22.95;30.57;103103.31;5033236;28;20041;-74
2022/04/29 11:26:46;;;;;;;6.18;4.03;;;;;;;21.89;30.80;103112.06;5062211;28;20055;-74
2022/04/29 11:29:12;;;;;;;9.38;4.03;;;;;;;22.14;31.07;103099.91;5051193;28;20039;-74
2022/04/29 11:31:39;;;;;;;11.90;3.78;;;;;;;22.40;30.61;103113.59;5050230;28;20021;-74
2022/04/29 11:34:09;;;;;;;9.75;4.05;;;;;;;22.55;30.45;103099.88;5050410;28;20035;-74
2022/04/29 11:36:36;;;;;;;6.55;4.00;;;;;;;24.21;29.16;103099.69;5042120;28;20034;-74
2022/04/29 11:39:08;;;;;;;5.47;4.05;;;;;;;22.96;29.71;103099.75;5047847;28;20448;-74
2022/04/29 11:41:33;;;;;;;8.80;4.15;;;;;;;24.17;28.47;103098.03;5050220;28;20124;-74
2022/04/29 11:43:58;;;;;;;10.90;4.53;;;;;;;24.28;28.27;103091.47;5050058;28;20120;-74